createdAt,value
2022-09-12T00:05:31.130Z,18.95
2022-09-12T00:15:38.392Z,19.05
2022-09-12T00:25:47.331Z,19.14
2022-09-12T00:35:52.984Z,19.03
2022-09-12T00:45:57.866Z,19.25
2022-09-12T00:56:01.161Z,18.79
2022-09-12T01:06:10.754Z,18.89
2022-09-12T01:16:14.034Z,18.69
2022-09-12T01:26:34.581Z,18.86
2022-09-12T01:36:48.571Z,18.88
2022-09-12T01:46:56.429Z,19.00
2022-09-12T01:57:05.053Z,18.66
2022-09-12T02:07:12.509Z,18.65
2022-09-12T02:17:20.482Z,18.79
2022-09-12T02:27:26.838Z,18.83
2022-09-12T02:37:39.934Z,18.68
2022-09-12T02:47:46.162Z,18.80
2022-09-12T02:57:50.822Z,18.89
2022-09-12T03:08:26.898Z,18.77
2022-09-12T03:18:42.075Z,18.58
2022-09-12T03:28:46.195Z,18.57
2022-09-12T03:38:50.800Z,18.69
2022-09-12T03:48:53.955Z,18.60
2022-09-12T03:58:58.609Z,18.49
2022-09-12T04:09:01.751Z,18.33
2022-09-12T04:19:06.210Z,18.50
2022-09-12T04:29:10.867Z,18.33
2022-09-12T04:39:16.988Z,18.16
2022-09-12T04:49:20.372Z,18.33
2022-09-12T04:59:24.880Z,18.34
2022-09-12T05:09:29.180Z,18.17
2022-09-12T05:19:34.030Z,17.92
2022-09-12T05:29:37.171Z,17.77
2022-09-12T05:39:41.682Z,18.69
2022-09-12T05:49:48.012Z,21.06
2022-09-12T05:59:52.921Z,23.57
2022-09-12T06:09:57.591Z,24.99
2022-09-12T06:20:16.482Z,24.93
2022-09-12T06:30:25.376Z,25.04
2022-09-12T06:40:30.155Z,24.78
2022-09-12T06:50:33.293Z,24.69
2022-09-12T07:00:37.760Z,25.51
2022-09-12T07:10:41.120Z,25.58
2022-09-12T07:20:45.557Z,25.58
2022-09-12T07:30:48.625Z,25.62
2022-09-12T07:40:53.557Z,24.58
2022-09-12T07:51:00.596Z,24.00
2022-09-12T08:01:09.464Z,23.75
2022-09-12T08:11:14.064Z,23.82
2022-09-12T08:21:19.918Z,23.87
2022-09-12T08:31:25.093Z,24.09
2022-09-12T08:41:32.101Z,24.31
2022-09-12T08:51:35.553Z,24.53
2022-09-12T09:01:44.488Z,24.54
2022-09-12T09:11:56.575Z,24.51
2022-09-12T09:22:04.165Z,24.75
2022-09-12T09:32:14.303Z,25.02
2022-09-12T09:42:29.185Z,25.26
2022-09-12T09:52:33.271Z,25.30
2022-09-12T10:02:38.573Z,25.04
2022-09-12T10:12:42.110Z,24.90
2022-09-12T10:22:48.431Z,24.42
2022-09-12T10:32:52.346Z,24.24
2022-09-12T10:42:58.822Z,25.41
2022-09-12T10:53:17.858Z,25.37
2022-09-12T11:03:25.465Z,25.49
2022-09-12T11:13:45.308Z,25.35
2022-09-12T11:24:12.133Z,25.70
2022-09-12T11:34:18.073Z,24.56
2022-09-12T11:44:25.808Z,23.86
2022-09-12T11:54:32.589Z,23.32
2022-09-12T12:04:41.368Z,22.97
2022-09-12T12:14:45.917Z,23.21
2022-09-12T12:25:07.517Z,24.10
2022-09-12T12:35:41.552Z,24.16
2022-09-12T12:46:07.760Z,24.69
2022-09-12T12:56:28.338Z,25.04
2022-09-12T13:06:37.135Z,25.12
2022-09-12T13:16:41.929Z,25.69
2022-09-12T13:26:49.469Z,26.18
2022-09-12T13:37:06.743Z,25.35
2022-09-12T13:47:13.650Z,25.41
2022-09-12T13:57:31.726Z,25.12
2022-09-12T14:07:41.138Z,24.86
2022-09-12T14:17:52.102Z,24.32
2022-09-12T14:27:57.221Z,24.50
2022-09-12T14:38:08.337Z,25.03
2022-09-12T14:48:19.447Z,25.24
2022-09-12T14:58:27.982Z,25.29
2022-09-12T15:08:32.988Z,25.29
2022-09-12T15:18:36.089Z,24.96
2022-09-12T15:28:40.601Z,24.72
2022-09-12T15:38:44.038Z,24.56
2022-09-12T15:48:48.661Z,24.29
2022-09-12T15:59:00.055Z,24.01
2022-09-12T16:09:04.954Z,23.76
2022-09-12T16:19:09.170Z,23.74
2022-09-12T16:29:14.875Z,23.41
2022-09-12T16:39:18.143Z,23.28
2022-09-12T16:49:22.795Z,23.14
2022-09-12T17:09:30.078Z,22.59
2022-09-12T17:19:33.225Z,22.39
2022-09-12T17:29:38.625Z,22.25
2022-09-12T17:39:41.760Z,21.74
2022-09-12T17:49:47.569Z,21.60
2022-09-12T17:59:50.841Z,21.09
2022-09-12T18:09:55.351Z,20.67
2022-09-12T18:19:58.515Z,20.28
2022-09-12T18:30:20.699Z,19.59
2022-09-12T18:40:24.457Z,18.91
2022-09-12T18:50:28.978Z,18.55
2022-09-12T19:00:32.216Z,18.16
2022-09-12T19:10:36.952Z,17.77
2022-09-12T19:20:40.063Z,17.53
2022-09-12T19:30:49.451Z,17.18
2022-09-12T19:41:02.844Z,17.34
2022-09-12T19:51:07.611Z,17.18
2022-09-12T20:01:12.429Z,16.88
2022-09-12T20:11:19.062Z,16.64
2022-09-12T20:21:25.198Z,16.40
2022-09-12T20:31:30.306Z,16.39
2022-09-12T20:41:35.368Z,16.02
2022-09-12T20:51:39.996Z,15.76
2022-09-12T21:01:44.047Z,15.51
2022-09-12T21:11:48.626Z,15.35
2022-09-12T21:21:51.737Z,15.19
2022-09-12T21:31:56.143Z,15.11
2022-09-12T21:41:59.485Z,15.00
2022-09-12T21:52:04.862Z,14.71
2022-09-12T22:02:08.690Z,14.50
2022-09-12T22:12:13.349Z,14.19
2022-09-12T22:22:34.356Z,14.01
2022-09-12T22:32:38.866Z,14.11
2022-09-12T22:42:41.977Z,13.74
2022-09-12T22:52:46.698Z,13.66
2022-09-12T23:02:49.794Z,13.66
2022-09-12T23:12:55.364Z,13.46
2022-09-12T23:22:58.488Z,13.51
2022-09-12T23:33:02.922Z,13.43
2022-09-12T23:43:06.072Z,13.33
2022-09-12T23:53:12.024Z,13.08
